sensor_id;sensor_type;location;lat;lon;timestamp;P1;durP1;ratioP1;P2;durP2;ratioP2
41077;SDS011;26823;42.662;23.352;2022-07-23T00:01:53;13.13;;;5.68;;
41077;SDS011;26823;42.662;23.352;2022-07-23T00:04:18;7.38;;;5.72;;
41077;SDS011;26823;42.662;23.352;2022-07-23T00:06:44;13.88;;;6.32;;
41077;SDS011;26823;42.662;23.352;2022-07-23T00:09:09;9.48;;;6.05;;
41077;SDS011;26823;42.662;23.352;2022-07-23T00:11:34;6.85;;;5.75;;
41077;SDS011;26823;42.662;23.352;2022-07-23T00:14:00;12.95;;;6.28;;
41077;SDS011;26823;42.662;23.352;2022-07-23T00:16:25;8.45;;;6.43;;
41077;SDS011;26823;42.662;23.352;2022-07-23T00:18:51;9.65;;;6.45;;
41077;SDS011;26823;42.662;23.352;2022-07-23T00:21:16;13.02;;;7.13;;
41077;SDS011;26823;42.662;23.352;2022-07-23T00:23:41;8.95;;;6.22;;
41077;SDS011;26823;42.662;23.352;2022-07-23T00:26:07;8.20;;;6.47;;
41077;SDS011;26823;42.662;23.352;2022-07-23T00:28:32;12.35;;;7.32;;
41077;SDS011;26823;42.662;23.352;2022-07-23T00:30:58;7.97;;;7.10;;
41077;SDS011;26823;42.662;23.352;2022-07-23T00:33:23;11.57;;;7.35;;
41077;SDS011;26823;42.662;23.352;2022-07-23T00:35:49;13.15;;;7.43;;
41077;SDS011;26823;42.662;23.352;2022-07-23T00:38:14;8.73;;;6.80;;
41077;SDS011;26823;42.662;23.352;2022-07-23T00:40:40;9.88;;;6.50;;
41077;SDS011;26823;42.662;23.352;2022-07-23T00:43:06;8.38;;;6.75;;
41077;SDS011;26823;42.662;23.352;2022-07-23T00:45:31;8.15;;;6.65;;
41077;SDS011;26823;42.662;23.352;2022-07-23T00:47:57;11.48;;;5.93;;
41077;SDS011;26823;42.662;23.352;2022-07-23T00:50:23;12.23;;;6.85;;
41077;SDS011;26823;42.662;23.352;2022-07-23T00:52:49;8.48;;;6.25;;
41077;SDS011;26823;42.662;23.352;2022-07-23T00:55:15;8.93;;;5.93;;
41077;SDS011;26823;42.662;23.352;2022-07-23T00:57:41;9.07;;;6.18;;
41077;SDS011;26823;42.662;23.352;2022-07-23T01:00:08;7.15;;;5.18;;
41077;SDS011;26823;42.662;23.352;2022-07-23T01:02:36;7.22;;;5.53;;
41077;SDS011;26823;42.662;23.352;2022-07-23T01:05:02;6.30;;;5.70;;
41077;SDS011;26823;42.662;23.352;2022-07-23T01:07:28;7.55;;;5.45;;
41077;SDS011;26823;42.662;23.352;2022-07-23T01:09:54;16.55;;;6.50;;
41077;SDS011;26823;42.662;23.352;2022-07-23T01:12:20;6.85;;;5.70;;
41077;SDS011;26823;42.662;23.352;2022-07-23T01:14:52;8.73;;;5.78;;
41077;SDS011;26823;42.662;23.352;2022-07-23T01:17:24;9.73;;;5.50;;
41077;SDS011;26823;42.662;23.352;2022-07-23T01:19:51;8.57;;;6.45;;
41077;SDS011;26823;42.662;23.352;2022-07-23T01:22:18;6.97;;;5.28;;
41077;SDS011;26823;42.662;23.352;2022-07-23T01:24:44;8.98;;;5.57;;
41077;SDS011;26823;42.662;23.352;2022-07-23T01:27:10;10.05;;;5.55;;
41077;SDS011;26823;42.662;23.352;2022-07-23T01:29:37;7.95;;;5.60;;
41077;SDS011;26823;42.662;23.352;2022-07-23T01:32:03;8.40;;;5.18;;
41077;SDS011;26823;42.662;23.352;2022-07-23T01:34:29;12.88;;;5.47;;
41077;SDS011;26823;42.662;23.352;2022-07-23T01:36:54;6.07;;;5.45;;
41077;SDS011;26823;42.662;23.352;2022-07-23T01:39:19;6.88;;;5.53;;
41077;SDS011;26823;42.662;23.352;2022-07-23T01:41:45;7.82;;;5.32;;
41077;SDS011;26823;42.662;23.352;2022-07-23T01:44:11;6.60;;;5.60;;
41077;SDS011;26823;42.662;23.352;2022-07-23T01:46:38;8.15;;;5.50;;
41077;SDS011;26823;42.662;23.352;2022-07-23T01:49:04;7.07;;;5.60;;
41077;SDS011;26823;42.662;23.352;2022-07-23T01:51:29;8.60;;;5.63;;
41077;SDS011;26823;42.662;23.352;2022-07-23T01:53:55;7.95;;;6.47;;
41077;SDS011;26823;42.662;23.352;2022-07-23T01:56:20;7.93;;;5.65;;
41077;SDS011;26823;42.662;23.352;2022-07-23T01:58:46;10.50;;;5.68;;
41077;SDS011;26823;42.662;23.352;2022-07-23T02:01:12;6.88;;;5.43;;
41077;SDS011;26823;42.662;23.352;2022-07-23T02:03:38;10.30;;;6.30;;
41077;SDS011;26823;42.662;23.352;2022-07-23T02:06:03;7.60;;;5.45;;
41077;SDS011;26823;42.662;23.352;2022-07-23T02:08:28;10.38;;;6.13;;
41077;SDS011;26823;42.662;23.352;2022-07-23T02:10:54;9.13;;;5.57;;
41077;SDS011;26823;42.662;23.352;2022-07-23T02:13:19;9.38;;;6.05;;
41077;SDS011;26823;42.662;23.352;2022-07-23T02:15:48;11.00;;;5.97;;
41077;SDS011;26823;42.662;23.352;2022-07-23T02:18:14;10.23;;;6.47;;
41077;SDS011;26823;42.662;23.352;2022-07-23T02:20:39;9.13;;;6.43;;
41077;SDS011;26823;42.662;23.352;2022-07-23T02:23:05;11.77;;;5.88;;
41077;SDS011;26823;42.662;23.352;2022-07-23T02:25:31;9.55;;;6.50;;
41077;SDS011;26823;42.662;23.352;2022-07-23T02:27:57;9.60;;;6.10;;
41077;SDS011;26823;42.662;23.352;2022-07-23T02:30:23;7.50;;;5.75;;
41077;SDS011;26823;42.662;23.352;2022-07-23T02:32:48;7.22;;;6.35;;
41077;SDS011;26823;42.662;23.352;2022-07-23T02:35:13;6.72;;;5.85;;
41077;SDS011;26823;42.662;23.352;2022-07-23T02:37:39;13.30;;;6.18;;
41077;SDS011;26823;42.662;23.352;2022-07-23T02:40:04;7.22;;;5.80;;
41077;SDS011;26823;42.662;23.352;2022-07-23T02:42:30;9.27;;;5.90;;
41077;SDS011;26823;42.662;23.352;2022-07-23T02:44:55;7.65;;;5.82;;
41077;SDS011;26823;42.662;23.352;2022-07-23T02:47:21;7.95;;;6.47;;
41077;SDS011;26823;42.662;23.352;2022-07-23T02:49:46;9.15;;;6.47;;
41077;SDS011;26823;42.662;23.352;2022-07-23T02:52:12;10.30;;;5.82;;
41077;SDS011;26823;42.662;23.352;2022-07-23T02:54:37;12.30;;;6.70;;
41077;SDS011;26823;42.662;23.352;2022-07-23T02:57:03;7.63;;;6.35;;
41077;SDS011;26823;42.662;23.352;2022-07-23T02:59:28;9.18;;;6.93;;
41077;SDS011;26823;42.662;23.352;2022-07-23T03:01:54;10.25;;;6.25;;
41077;SDS011;26823;42.662;23.352;2022-07-23T03:04:19;10.38;;;6.40;;
41077;SDS011;26823;42.662;23.352;2022-07-23T03:06:45;9.65;;;6.18;;
41077;SDS011;26823;42.662;23.352;2022-07-23T03:09:10;11.95;;;5.95;;
41077;SDS011;26823;42.662;23.352;2022-07-23T03:11:35;12.98;;;6.88;;
41077;SDS011;26823;42.662;23.352;2022-07-23T03:14:01;11.70;;;7.07;;
41077;SDS011;26823;42.662;23.352;2022-07-23T03:16:26;9.77;;;6.15;;
41077;SDS011;26823;42.662;23.352;2022-07-23T03:18:52;10.00;;;7.68;;
41077;SDS011;26823;42.662;23.352;2022-07-23T03:21:17;10.38;;;5.97;;
41077;SDS011;26823;42.662;23.352;2022-07-23T03:23:42;11.52;;;6.68;;
41077;SDS011;26823;42.662;23.352;2022-07-23T03:26:08;13.93;;;8.02;;
41077;SDS011;26823;42.662;23.352;2022-07-23T03:28:33;11.13;;;6.72;;
41077;SDS011;26823;42.662;23.352;2022-07-23T03:30:59;14.52;;;8.52;;
41077;SDS011;26823;42.662;23.352;2022-07-23T03:33:24;13.20;;;7.93;;
41077;SDS011;26823;42.662;23.352;2022-07-23T03:35:50;10.30;;;7.07;;
41077;SDS011;26823;42.662;23.352;2022-07-23T03:38:15;13.05;;;6.05;;
41077;SDS011;26823;42.662;23.352;2022-07-23T03:40:41;8.57;;;6.35;;
41077;SDS011;26823;42.662;23.352;2022-07-23T03:43:06;9.98;;;7.00;;
41077;SDS011;26823;42.662;23.352;2022-07-23T03:45:32;8.82;;;6.28;;
41077;SDS011;26823;42.662;23.352;2022-07-23T03:47:58;10.73;;;6.82;;
41077;SDS011;26823;42.662;23.352;2022-07-23T03:50:24;9.63;;;7.22;;
41077;SDS011;26823;42.662;23.352;2022-07-23T03:52:49;16.23;;;9.63;;
41077;SDS011;26823;42.662;23.352;2022-07-23T03:55:15;10.70;;;8.40;;
41077;SDS011;26823;42.662;23.352;2022-07-23T03:57:41;9.77;;;7.72;;
41077;SDS011;26823;42.662;23.352;2022-07-23T04:00:07;11.73;;;8.05;;
41077;SDS011;26823;42.662;23.352;2022-07-23T04:02:34;11.90;;;7.95;;
41077;SDS011;26823;42.662;23.352;2022-07-23T04:04:59;10.98;;;7.90;;
41077;SDS011;26823;42.662;23.352;2022-07-23T04:07:25;18.45;;;8.70;;
41077;SDS011;26823;42.662;23.352;2022-07-23T04:09:51;9.68;;;7.95;;
41077;SDS011;26823;42.662;23.352;2022-07-23T04:12:17;10.75;;;8.43;;
41077;SDS011;26823;42.662;23.352;2022-07-23T04:14:43;16.05;;;8.10;;
41077;SDS011;26823;42.662;23.352;2022-07-23T04:17:08;11.23;;;8.10;;
41077;SDS011;26823;42.662;23.352;2022-07-23T04:19:34;10.32;;;8.02;;
41077;SDS011;26823;42.662;23.352;2022-07-23T04:22:04;11.57;;;8.63;;
41077;SDS011;26823;42.662;23.352;2022-07-23T04:24:33;10.85;;;8.02;;
41077;SDS011;26823;42.662;23.352;2022-07-23T04:26:59;15.02;;;8.23;;
41077;SDS011;26823;42.662;23.352;2022-07-23T04:29:25;11.50;;;9.13;;
41077;SDS011;26823;42.662;23.352;2022-07-23T04:31:52;13.65;;;8.30;;
41077;SDS011;26823;42.662;23.352;2022-07-23T04:34:18;13.65;;;8.25;;
41077;SDS011;26823;42.662;23.352;2022-07-23T04:36:44;12.93;;;8.27;;
41077;SDS011;26823;42.662;23.352;2022-07-23T04:39:09;9.48;;;7.85;;
41077;SDS011;26823;42.662;23.352;2022-07-23T04:41:35;14.48;;;8.55;;
41077;SDS011;26823;42.662;23.352;2022-07-23T04:44:01;10.32;;;8.02;;
41077;SDS011;26823;42.662;23.352;2022-07-23T04:46:27;13.55;;;8.10;;
41077;SDS011;26823;42.662;23.352;2022-07-23T04:48:52;13.23;;;7.53;;
41077;SDS011;26823;42.662;23.352;2022-07-23T04:51:18;14.52;;;7.65;;
41077;SDS011;26823;42.662;23.352;2022-07-23T04:53:43;13.38;;;7.22;;
41077;SDS011;26823;42.662;23.352;2022-07-23T04:56:09;12.45;;;7.18;;
41077;SDS011;26823;42.662;23.352;2022-07-23T04:58:34;13.75;;;7.10;;
41077;SDS011;26823;42.662;23.352;2022-07-23T05:01:00;11.70;;;7.53;;
41077;SDS011;26823;42.662;23.352;2022-07-23T05:03:25;13.85;;;7.43;;
41077;SDS011;26823;42.662;23.352;2022-07-23T05:05:50;11.23;;;8.02;;
41077;SDS011;26823;42.662;23.352;2022-07-23T05:08:16;11.18;;;7.00;;
41077;SDS011;26823;42.662;23.352;2022-07-23T05:10:42;9.95;;;7.97;;
41077;SDS011;26823;42.662;23.352;2022-07-23T05:13:07;12.45;;;7.22;;
41077;SDS011;26823;42.662;23.352;2022-07-23T05:15:33;9.35;;;7.68;;
41077;SDS011;26823;42.662;23.352;2022-07-23T05:17:58;9.07;;;7.57;;
41077;SDS011;26823;42.662;23.352;2022-07-23T05:20:23;10.13;;;7.90;;
41077;SDS011;26823;42.662;23.352;2022-07-23T05:22:49;12.45;;;7.15;;
41077;SDS011;26823;42.662;23.352;2022-07-23T05:25:14;12.73;;;7.88;;
41077;SDS011;26823;42.662;23.352;2022-07-23T05:27:40;11.02;;;7.47;;
41077;SDS011;26823;42.662;23.352;2022-07-23T05:30:05;13.85;;;7.75;;
41077;SDS011;26823;42.662;23.352;2022-07-23T05:32:32;8.82;;;7.35;;
41077;SDS011;26823;42.662;23.352;2022-07-23T05:34:57;11.45;;;8.02;;
41077;SDS011;26823;42.662;23.352;2022-07-23T05:37:23;9.98;;;7.95;;
41077;SDS011;26823;42.662;23.352;2022-07-23T05:39:48;10.40;;;7.55;;
41077;SDS011;26823;42.662;23.352;2022-07-23T05:42:13;14.55;;;7.35;;
41077;SDS011;26823;42.662;23.352;2022-07-23T05:44:39;14.70;;;7.40;;
41077;SDS011;26823;42.662;23.352;2022-07-23T05:47:04;13.35;;;7.88;;
41077;SDS011;26823;42.662;23.352;2022-07-23T05:49:30;14.02;;;7.85;;
41077;SDS011;26823;42.662;23.352;2022-07-23T05:51:55;11.55;;;7.57;;
41077;SDS011;26823;42.662;23.352;2022-07-23T05:54:21;11.93;;;7.22;;
41077;SDS011;26823;42.662;23.352;2022-07-23T05:56:46;11.90;;;7.90;;
41077;SDS011;26823;42.662;23.352;2022-07-23T05:59:11;10.60;;;7.28;;
41077;SDS011;26823;42.662;23.352;2022-07-23T06:01:38;12.20;;;7.60;;
41077;SDS011;26823;42.662;23.352;2022-07-23T06:04:03;12.25;;;7.93;;
41077;SDS011;26823;42.662;23.352;2022-07-23T06:06:28;12.50;;;7.78;;
41077;SDS011;26823;42.662;23.352;2022-07-23T06:08:54;10.38;;;7.38;;
41077;SDS011;26823;42.662;23.352;2022-07-23T06:11:19;14.70;;;8.40;;
41077;SDS011;26823;42.662;23.352;2022-07-23T06:13:45;15.95;;;7.85;;
41077;SDS011;26823;42.662;23.352;2022-07-23T06:16:10;9.25;;;7.25;;
41077;SDS011;26823;42.662;23.352;2022-07-23T06:18:35;10.57;;;7.38;;
41077;SDS011;26823;42.662;23.352;2022-07-23T06:21:01;22.02;;;7.72;;
41077;SDS011;26823;42.662;23.352;2022-07-23T06:23:26;12.63;;;7.85;;
41077;SDS011;26823;42.662;23.352;2022-07-23T06:25:52;12.20;;;7.00;;
41077;SDS011;26823;42.662;23.352;2022-07-23T06:28:17;14.55;;;7.50;;
41077;SDS011;26823;42.662;23.352;2022-07-23T06:30:43;14.85;;;7.18;;
41077;SDS011;26823;42.662;23.352;2022-07-23T06:33:08;10.02;;;6.95;;
41077;SDS011;26823;42.662;23.352;2022-07-23T06:35:34;11.35;;;7.53;;
41077;SDS011;26823;42.662;23.352;2022-07-23T06:38:00;13.68;;;7.20;;
41077;SDS011;26823;42.662;23.352;2022-07-23T06:40:25;15.70;;;7.65;;
41077;SDS011;26823;42.662;23.352;2022-07-23T06:42:51;14.10;;;7.30;;
41077;SDS011;26823;42.662;23.352;2022-07-23T06:45:17;11.80;;;6.90;;
41077;SDS011;26823;42.662;23.352;2022-07-23T06:47:42;15.30;;;7.10;;
41077;SDS011;26823;42.662;23.352;2022-07-23T06:50:08;12.82;;;7.22;;
41077;SDS011;26823;42.662;23.352;2022-07-23T06:52:34;13.23;;;8.00;;
41077;SDS011;26823;42.662;23.352;2022-07-23T06:54:59;7.80;;;6.65;;
41077;SDS011;26823;42.662;23.352;2022-07-23T06:57:25;9.38;;;7.28;;
41077;SDS011;26823;42.662;23.352;2022-07-23T06:59:50;11.38;;;7.43;;
41077;SDS011;26823;42.662;23.352;2022-07-23T07:02:16;10.07;;;6.75;;
41077;SDS011;26823;42.662;23.352;2022-07-23T07:04:42;15.20;;;7.22;;
41077;SDS011;26823;42.662;23.352;2022-07-23T07:07:07;14.02;;;7.28;;
41077;SDS011;26823;42.662;23.352;2022-07-23T07:09:35;14.20;;;7.95;;
41077;SDS011;26823;42.662;23.352;2022-07-23T07:12:07;10.77;;;7.22;;
41077;SDS011;26823;42.662;23.352;2022-07-23T07:14:33;10.07;;;6.90;;
41077;SDS011;26823;42.662;23.352;2022-07-23T07:16:58;9.07;;;7.75;;
41077;SDS011;26823;42.662;23.352;2022-07-23T07:19:24;16.10;;;7.13;;
41077;SDS011;26823;42.662;23.352;2022-07-23T07:21:49;14.05;;;7.07;;
41077;SDS011;26823;42.662;23.352;2022-07-23T07:24:14;10.45;;;7.47;;
41077;SDS011;26823;42.662;23.352;2022-07-23T07:26:40;12.75;;;7.55;;
41077;SDS011;26823;42.662;23.352;2022-07-23T07:29:05;11.27;;;7.28;;
41077;SDS011;26823;42.662;23.352;2022-07-23T07:31:31;9.05;;;6.72;;
41077;SDS011;26823;42.662;23.352;2022-07-23T07:33:56;8.55;;;7.13;;
41077;SDS011;26823;42.662;23.352;2022-07-23T07:36:23;10.95;;;7.07;;
41077;SDS011;26823;42.662;23.352;2022-07-23T07:38:48;13.18;;;6.97;;
41077;SDS011;26823;42.662;23.352;2022-07-23T07:41:14;11.82;;;7.18;;
41077;SDS011;26823;42.662;23.352;2022-07-23T07:43:39;8.95;;;6.78;;
41077;SDS011;26823;42.662;23.352;2022-07-23T07:46:05;9.82;;;6.63;;
41077;SDS011;26823;42.662;23.352;2022-07-23T07:48:37;12.82;;;7.65;;
41077;SDS011;26823;42.662;23.352;2022-07-23T07:51:03;9.13;;;7.20;;
41077;SDS011;26823;42.662;23.352;2022-07-23T07:53:30;10.35;;;6.38;;
41077;SDS011;26823;42.662;23.352;2022-07-23T07:55:58;14.32;;;7.13;;
41077;SDS011;26823;42.662;23.352;2022-07-23T07:58:29;10.35;;;7.32;;
41077;SDS011;26823;42.662;23.352;2022-07-23T08:01:01;8.82;;;7.18;;
41077;SDS011;26823;42.662;23.352;2022-07-23T08:03:27;14.48;;;7.35;;
41077;SDS011;26823;42.662;23.352;2022-07-23T08:05:53;13.30;;;6.53;;
41077;SDS011;26823;42.662;23.352;2022-07-23T08:08:18;9.63;;;7.00;;
41077;SDS011;26823;42.662;23.352;2022-07-23T08:10:43;13.65;;;6.70;;
41077;SDS011;26823;42.662;23.352;2022-07-23T08:13:11;9.88;;;6.97;;
41077;SDS011;26823;42.662;23.352;2022-07-23T08:15:41;11.82;;;6.82;;
41077;SDS011;26823;42.662;23.352;2022-07-23T08:18:06;11.13;;;6.68;;
41077;SDS011;26823;42.662;23.352;2022-07-23T08:20:32;10.80;;;7.30;;
41077;SDS011;26823;42.662;23.352;2022-07-23T08:22:58;12.57;;;7.25;;
41077;SDS011;26823;42.662;23.352;2022-07-23T08:25:32;8.50;;;6.22;;
41077;SDS011;26823;42.662;23.352;2022-07-23T08:27:59;13.30;;;6.90;;
41077;SDS011;26823;42.662;23.352;2022-07-23T08:30:26;10.00;;;7.10;;
41077;SDS011;26823;42.662;23.352;2022-07-23T08:32:56;9.15;;;7.05;;
41077;SDS011;26823;42.662;23.352;2022-07-23T08:38:02;16.38;;;6.63;;
41077;SDS011;26823;42.662;23.352;2022-07-23T08:40:30;13.32;;;7.10;;
41077;SDS011;26823;42.662;23.352;2022-07-23T08:42:57;10.40;;;7.03;;
41077;SDS011;26823;42.662;23.352;2022-07-23T08:45:25;10.45;;;6.47;;
41077;SDS011;26823;42.662;23.352;2022-07-23T08:47:52;8.55;;;6.72;;
41077;SDS011;26823;42.662;23.352;2022-07-23T08:50:24;8.60;;;7.10;;
41077;SDS011;26823;42.662;23.352;2022-07-23T08:52:50;14.18;;;6.90;;
41077;SDS011;26823;42.662;23.352;2022-07-23T08:55:20;13.73;;;7.03;;
41077;SDS011;26823;42.662;23.352;2022-07-23T08:57:51;16.92;;;7.80;;
41077;SDS011;26823;42.662;23.352;2022-07-23T09:00:18;8.75;;;7.00;;
41077;SDS011;26823;42.662;23.352;2022-07-23T09:02:45;14.38;;;7.75;;
41077;SDS011;26823;42.662;23.352;2022-07-23T09:05:11;11.52;;;7.18;;
41077;SDS011;26823;42.662;23.352;2022-07-23T09:07:38;14.50;;;6.40;;
41077;SDS011;26823;42.662;23.352;2022-07-23T09:10:48;12.73;;;6.93;;
41077;SDS011;26823;42.662;23.352;2022-07-23T09:15:50;10.68;;;6.60;;
41077;SDS011;26823;42.662;23.352;2022-07-23T09:18:17;12.70;;;6.82;;
41077;SDS011;26823;42.662;23.352;2022-07-23T09:20:43;11.95;;;7.13;;
41077;SDS011;26823;42.662;23.352;2022-07-23T09:23:09;12.15;;;6.97;;
41077;SDS011;26823;42.662;23.352;2022-07-23T09:25:34;11.35;;;6.53;;
41077;SDS011;26823;42.662;23.352;2022-07-23T09:28:00;11.88;;;6.97;;
41077;SDS011;26823;42.662;23.352;2022-07-23T09:30:29;16.70;;;6.57;;
41077;SDS011;26823;42.662;23.352;2022-07-23T09:33:14;7.45;;;6.45;;
41077;SDS011;26823;42.662;23.352;2022-07-23T09:35:44;13.73;;;6.25;;
41077;SDS011;26823;42.662;23.352;2022-07-23T09:38:09;9.13;;;6.00;;
41077;SDS011;26823;42.662;23.352;2022-07-23T09:40:35;15.70;;;7.40;;
41077;SDS011;26823;42.662;23.352;2022-07-23T09:43:00;10.30;;;6.30;;
41077;SDS011;26823;42.662;23.352;2022-07-23T09:45:25;10.23;;;6.70;;
41077;SDS011;26823;42.662;23.352;2022-07-23T09:47:51;7.18;;;5.85;;
41077;SDS011;26823;42.662;23.352;2022-07-23T09:50:39;8.98;;;6.22;;
41077;SDS011;26823;42.662;23.352;2022-07-23T09:53:05;13.32;;;8.82;;
41077;SDS011;26823;42.662;23.352;2022-07-23T09:55:35;15.35;;;7.20;;
41077;SDS011;26823;42.662;23.352;2022-07-23T09:58:07;13.73;;;6.35;;
41077;SDS011;26823;42.662;23.352;2022-07-23T10:00:38;12.10;;;5.90;;
41077;SDS011;26823;42.662;23.352;2022-07-23T10:03:05;10.82;;;5.45;;
41077;SDS011;26823;42.662;23.352;2022-07-23T10:05:32;9.02;;;5.40;;
41077;SDS011;26823;42.662;23.352;2022-07-23T10:08:00;7.82;;;5.07;;
41077;SDS011;26823;42.662;23.352;2022-07-23T10:10:26;10.02;;;5.63;;
41077;SDS011;26823;42.662;23.352;2022-07-23T10:12:54;11.23;;;6.60;;
41077;SDS011;26823;42.662;23.352;2022-07-23T10:15:39;11.15;;;6.30;;
41077;SDS011;26823;42.662;23.352;2022-07-23T10:18:05;15.18;;;8.40;;
41077;SDS011;26823;42.662;23.352;2022-07-23T10:20:31;15.20;;;7.55;;
41077;SDS011;26823;42.662;23.352;2022-07-23T10:23:02;8.63;;;4.65;;
41077;SDS011;26823;42.662;23.352;2022-07-23T10:25:41;9.50;;;4.82;;
41077;SDS011;26823;42.662;23.352;2022-07-23T10:28:23;9.25;;;4.97;;
41077;SDS011;26823;42.662;23.352;2022-07-23T10:31:01;15.93;;;6.55;;
41077;SDS011;26823;42.662;23.352;2022-07-23T10:41:32;15.82;;;6.22;;
41077;SDS011;26823;42.662;23.352;2022-07-23T10:44:09;20.05;;;8.15;;
41077;SDS011;26823;42.662;23.352;2022-07-23T10:46:53;18.77;;;7.00;;
41077;SDS011;26823;42.662;23.352;2022-07-23T10:49:29;13.00;;;5.07;;
41077;SDS011;26823;42.662;23.352;2022-07-23T10:57:11;11.60;;;5.47;;
41077;SDS011;26823;42.662;23.352;2022-07-23T11:02:28;9.68;;;5.88;;
41077;SDS011;26823;42.662;23.352;2022-07-23T11:04:58;15.35;;;5.43;;
41077;SDS011;26823;42.662;23.352;2022-07-23T11:07:26;15.43;;;5.20;;
41077;SDS011;26823;42.662;23.352;2022-07-23T11:09:51;8.23;;;4.70;;
41077;SDS011;26823;42.662;23.352;2022-07-23T11:20:16;12.60;;;5.20;;
41077;SDS011;26823;42.662;23.352;2022-07-23T11:25:51;12.57;;;4.85;;
41077;SDS011;26823;42.662;23.352;2022-07-23T11:28:13;10.63;;;4.95;;
41077;SDS011;26823;42.662;23.352;2022-07-23T11:30:42;11.63;;;5.15;;
41077;SDS011;26823;42.662;23.352;2022-07-23T11:35:41;7.53;;;4.15;;
41077;SDS011;26823;42.662;23.352;2022-07-23T11:38:15;10.80;;;4.13;;
41077;SDS011;26823;42.662;23.352;2022-07-23T11:40:45;17.88;;;4.85;;
41077;SDS011;26823;42.662;23.352;2022-07-23T11:43:12;9.65;;;3.88;;
41077;SDS011;26823;42.662;23.352;2022-07-23T11:45:39;11.25;;;4.40;;
41077;SDS011;26823;42.662;23.352;2022-07-23T11:48:08;12.02;;;4.75;;
41077;SDS011;26823;42.662;23.352;2022-07-23T11:50:35;17.15;;;6.30;;
41077;SDS011;26823;42.662;23.352;2022-07-23T11:53:01;13.80;;;4.80;;
41077;SDS011;26823;42.662;23.352;2022-07-23T11:55:27;11.73;;;4.10;;
41077;SDS011;26823;42.662;23.352;2022-07-23T11:57:53;10.90;;;4.57;;
41077;SDS011;26823;42.662;23.352;2022-07-23T12:00:23;10.63;;;3.80;;
41077;SDS011;26823;42.662;23.352;2022-07-23T12:02:51;10.13;;;4.38;;
41077;SDS011;26823;42.662;23.352;2022-07-23T12:05:22;14.57;;;4.35;;
41077;SDS011;26823;42.662;23.352;2022-07-23T12:07:53;17.67;;;4.47;;
41077;SDS011;26823;42.662;23.352;2022-07-23T12:12:52;11.75;;;4.10;;
41077;SDS011;26823;42.662;23.352;2022-07-23T12:15:30;14.52;;;4.70;;
41077;SDS011;26823;42.662;23.352;2022-07-23T12:17:59;13.70;;;6.75;;
41077;SDS011;26823;42.662;23.352;2022-07-23T12:20:36;16.50;;;6.45;;
41077;SDS011;26823;42.662;23.352;2022-07-23T12:23:07;16.45;;;5.47;;
41077;SDS011;26823;42.662;23.352;2022-07-23T12:25:34;14.20;;;4.93;;
41077;SDS011;26823;42.662;23.352;2022-07-23T12:28:18;11.82;;;4.85;;
41077;SDS011;26823;42.662;23.352;2022-07-23T12:30:51;9.77;;;4.13;;
41077;SDS011;26823;42.662;23.352;2022-07-23T12:33:22;11.93;;;4.35;;
41077;SDS011;26823;42.662;23.352;2022-07-23T12:35:56;13.63;;;4.63;;
41077;SDS011;26823;42.662;23.352;2022-07-23T12:38:24;11.00;;;4.45;;
41077;SDS011;26823;42.662;23.352;2022-07-23T12:40:55;9.57;;;4.50;;
41077;SDS011;26823;42.662;23.352;2022-07-23T12:43:28;16.80;;;5.85;;
41077;SDS011;26823;42.662;23.352;2022-07-23T12:46:14;12.32;;;4.65;;
41077;SDS011;26823;42.662;23.352;2022-07-23T12:54:07;11.00;;;4.20;;
41077;SDS011;26823;42.662;23.352;2022-07-23T12:56:36;12.05;;;4.47;;
41077;SDS011;26823;42.662;23.352;2022-07-23T13:01:41;10.88;;;4.47;;
41077;SDS011;26823;42.662;23.352;2022-07-23T13:06:39;14.10;;;4.55;;
41077;SDS011;26823;42.662;23.352;2022-07-23T13:09:20;8.80;;;4.47;;
41077;SDS011;26823;42.662;23.352;2022-07-23T13:11:48;11.13;;;4.93;;
41077;SDS011;26823;42.662;23.352;2022-07-23T13:14:16;12.13;;;4.10;;
41077;SDS011;26823;42.662;23.352;2022-07-23T13:16:42;10.75;;;3.67;;
41077;SDS011;26823;42.662;23.352;2022-07-23T13:19:09;10.85;;;3.83;;
41077;SDS011;26823;42.662;23.352;2022-07-23T13:21:34;12.85;;;3.95;;
41077;SDS011;26823;42.662;23.352;2022-07-23T13:24:00;13.02;;;4.45;;
41077;SDS011;26823;42.662;23.352;2022-07-23T13:26:26;12.23;;;3.33;;
41077;SDS011;26823;42.662;23.352;2022-07-23T13:28:52;15.57;;;4.35;;
41077;SDS011;26823;42.662;23.352;2022-07-23T13:31:18;10.68;;;3.75;;
41077;SDS011;26823;42.662;23.352;2022-07-23T13:33:45;16.55;;;4.43;;
41077;SDS011;26823;42.662;23.352;2022-07-23T13:36:11;14.30;;;5.15;;
41077;SDS011;26823;42.662;23.352;2022-07-23T13:38:36;11.77;;;4.40;;
41077;SDS011;26823;42.662;23.352;2022-07-23T13:41:02;9.77;;;4.18;;
41077;SDS011;26823;42.662;23.352;2022-07-23T13:43:30;17.75;;;6.00;;
41077;SDS011;26823;42.662;23.352;2022-07-23T13:45:56;10.65;;;4.72;;
41077;SDS011;26823;42.662;23.352;2022-07-23T13:48:22;12.32;;;4.35;;
41077;SDS011;26823;42.662;23.352;2022-07-23T13:50:48;10.38;;;5.05;;
41077;SDS011;26823;42.662;23.352;2022-07-23T13:53:15;15.93;;;5.25;;
41077;SDS011;26823;42.662;23.352;2022-07-23T13:55:42;16.02;;;5.00;;
41077;SDS011;26823;42.662;23.352;2022-07-23T13:58:09;12.38;;;4.45;;
41077;SDS011;26823;42.662;23.352;2022-07-23T14:00:36;17.45;;;4.68;;
41077;SDS011;26823;42.662;23.352;2022-07-23T14:03:06;11.95;;;4.68;;
41077;SDS011;26823;42.662;23.352;2022-07-23T14:05:32;9.90;;;4.50;;
41077;SDS011;26823;42.662;23.352;2022-07-23T14:07:58;13.63;;;4.22;;
41077;SDS011;26823;42.662;23.352;2022-07-23T14:10:23;11.98;;;4.68;;
41077;SDS011;26823;42.662;23.352;2022-07-23T14:12:50;11.18;;;4.05;;
41077;SDS011;26823;42.662;23.352;2022-07-23T14:15:17;13.40;;;4.47;;
41077;SDS011;26823;42.662;23.352;2022-07-23T14:17:44;13.90;;;4.20;;
41077;SDS011;26823;42.662;23.352;2022-07-23T14:20:11;7.72;;;4.22;;
41077;SDS011;26823;42.662;23.352;2022-07-23T14:22:38;12.65;;;4.88;;
41077;SDS011;26823;42.662;23.352;2022-07-23T14:25:04;11.52;;;4.32;;
41077;SDS011;26823;42.662;23.352;2022-07-23T14:27:31;14.50;;;4.75;;
41077;SDS011;26823;42.662;23.352;2022-07-23T14:29:57;8.77;;;4.07;;
41077;SDS011;26823;42.662;23.352;2022-07-23T14:32:23;15.55;;;5.32;;
41077;SDS011;26823;42.662;23.352;2022-07-23T14:34:48;9.00;;;4.57;;
41077;SDS011;26823;42.662;23.352;2022-07-23T14:37:14;9.98;;;4.25;;
41077;SDS011;26823;42.662;23.352;2022-07-23T14:39:40;9.63;;;4.30;;
41077;SDS011;26823;42.662;23.352;2022-07-23T14:42:07;7.97;;;4.25;;
41077;SDS011;26823;42.662;23.352;2022-07-23T14:44:33;11.60;;;4.50;;
41077;SDS011;26823;42.662;23.352;2022-07-23T14:46:59;12.43;;;4.40;;
41077;SDS011;26823;42.662;23.352;2022-07-23T14:49:25;12.15;;;3.83;;
41077;SDS011;26823;42.662;23.352;2022-07-23T14:51:51;13.57;;;4.65;;
41077;SDS011;26823;42.662;23.352;2022-07-23T14:54:16;12.50;;;4.35;;
41077;SDS011;26823;42.662;23.352;2022-07-23T14:56:42;8.73;;;4.20;;
41077;SDS011;26823;42.662;23.352;2022-07-23T14:59:08;11.68;;;5.28;;
41077;SDS011;26823;42.662;23.352;2022-07-23T15:01:33;14.00;;;4.50;;
41077;SDS011;26823;42.662;23.352;2022-07-23T15:03:59;13.15;;;4.70;;
41077;SDS011;26823;42.662;23.352;2022-07-23T15:06:25;9.90;;;3.80;;
41077;SDS011;26823;42.662;23.352;2022-07-23T15:08:51;12.32;;;3.92;;
41077;SDS011;26823;42.662;23.352;2022-07-23T15:11:16;8.25;;;4.00;;
41077;SDS011;26823;42.662;23.352;2022-07-23T15:13:42;8.38;;;3.95;;